»·PEaware :: N74KW KELN-KFHR

N74KW :: KELN-KFHR

FLIGHT INFORMATION

Flight Status: Arrived
Operator: Privately registered:
United States
More flights under this callsign
Pilot: Charles C. (26995)
Aircraft: MCDONNELL-DOUGLAS SKYTRAIN C-47
(DC3)
More flights by this aircraft type
Origin: KELN Bowers
United States
Destination: KFHR Friday Harbor
United States
More flights between these airports :: More routes between these airports
Route: KELN KFHR
File this flight plan on PilotEdge
Remarks:
Altitude:
(Current/Filed)
8,500ft
Speed:
(Current/Filed)
150kts
Departed: 04-Sep-20 08:36 AM
Arrived: 04-Sep-20 09:37 AM
Distance/Time
Traveled:
135nm/1:01
Distance/Time
To Go:
Arrived

Flight Plot

Page will automatically refresh every two minutes.

Flight plan parsing failed; only flown route is shown


Map Options




Map Legend


Flown Route
Filed Route
Departure Airport
Arrival Airport
Navaid (VOR, NDB)
Fix

Horizontal Profiles

Position Reports

Time Latitude Longitude Heading Altitude Ground
Speed
04-Sep-20 08:32 47.029513 -120.531356 301 1734ft 0kts
04-Sep-20 08:33 47.029602 -120.531448 7 1734ft 0kts
04-Sep-20 08:34 47.030360 -120.524801 88 1750ft 33kts
04-Sep-20 08:35 47.037131 -120.532382 312 1773ft 108kts
04-Sep-20 08:36 47.051942 -120.569053 275 2460ft 118kts
04-Sep-20 08:37 47.063682 -120.610636 299 3184ft 111kts
04-Sep-20 08:38 47.078048 -120.651065 286 3852ft 111kts
04-Sep-20 08:39 47.090741 -120.692314 297 4524ft 112kts
04-Sep-20 08:40 47.105069 -120.733354 298 5235ft 113kts
04-Sep-20 08:41 47.119430 -120.774186 298 5944ft 112kts
04-Sep-20 08:42 47.133731 -120.814880 297 6650ft 112kts
04-Sep-20 08:43 47.147978 -120.855483 297 7355ft 112kts
04-Sep-20 08:44 47.162120 -120.895849 296 8039ft 110kts
04-Sep-20 08:45 47.176451 -120.936672 297 8522ft 123kts
04-Sep-20 08:46 47.195305 -120.986832 297 8515ft 147kts
04-Sep-20 08:47 47.215335 -121.040074 297 8515ft 150kts
04-Sep-20 08:48 47.235644 -121.094175 297 8514ft 151kts
04-Sep-20 08:49 47.256064 -121.148632 297 8514ft 152kts
04-Sep-20 08:50 47.276895 -121.203103 297 8547ft 150kts
04-Sep-20 08:51 47.298576 -121.255245 299 8632ft 148kts
04-Sep-20 08:52 47.320405 -121.306907 300 8701ft 148kts
04-Sep-20 08:53 47.342986 -121.357829 301 8767ft 148kts
04-Sep-20 08:54 47.363651 -121.410073 296 8830ft 148kts
04-Sep-20 08:55 47.383265 -121.463480 296 8894ft 148kts
04-Sep-20 08:56 47.402961 -121.516744 296 8956ft 148kts
04-Sep-20 08:57 47.422780 -121.570032 296 9016ft 148kts
04-Sep-20 08:58 47.443778 -121.622525 304 9074ft 149kts
04-Sep-20 08:59 47.471237 -121.668798 311 9003ft 158kts
04-Sep-20 09:00 47.512253 -121.704287 330 8427ft 183kts
04-Sep-20 09:01 47.552948 -121.742300 315 8459ft 167kts
04-Sep-20 09:02 47.586238 -121.788968 313 8459ft 163kts
04-Sep-20 09:03 47.619042 -121.835085 313 8460ft 162kts
04-Sep-20 09:04 47.651276 -121.881650 312 8460ft 161kts
04-Sep-20 09:05 47.683169 -121.928381 312 8460ft 161kts
04-Sep-20 09:06 47.715008 -121.975056 312 8461ft 161kts
04-Sep-20 09:07 47.746852 -122.021818 312 8463ft 160kts
04-Sep-20 09:08 47.778651 -122.068597 312 8465ft 160kts
04-Sep-20 09:09 47.810276 -122.115205 312 8467ft 160kts
04-Sep-20 09:10 47.841977 -122.162011 312 8468ft 160kts
04-Sep-20 09:11 47.873571 -122.208747 312 8468ft 160kts
04-Sep-20 09:12 47.905253 -122.255696 312 8468ft 160kts
04-Sep-20 09:13 47.937222 -122.298411 317 8466ft 146kts
04-Sep-20 09:14 47.968760 -122.333691 321 8374ft 144kts
04-Sep-20 09:15 47.993952 -122.382416 303 7888ft 152kts
04-Sep-20 09:16 48.011981 -122.438735 293 7435ft 151kts
04-Sep-20 09:17 48.030112 -122.495615 295 7018ft 151kts
04-Sep-20 09:18 48.049105 -122.554032 296 6462ft 153kts
04-Sep-20 09:19 48.066523 -122.607497 295 6474ft 137kts
04-Sep-20 09:20 48.082999 -122.657989 298 6477ft 133kts
04-Sep-20 09:21 48.108779 -122.698419 312 6481ft 133kts
04-Sep-20 09:22 48.134984 -122.738030 313 6481ft 133kts
04-Sep-20 09:23 48.162327 -122.779184 313 6077ft 143kts
04-Sep-20 09:24 48.190615 -122.821803 314 5538ft 147kts
04-Sep-20 09:26 48.220621 -122.867090 314 4734ft 155kts
04-Sep-20 09:27 48.250827 -122.912758 314 4036ft 152kts
04-Sep-20 09:28 48.280361 -122.957494 315 3391ft 150kts
04-Sep-20 09:29 48.309168 -123.001186 315 2847ft 144kts
04-Sep-20 09:30 48.348125 -123.010302 356 2162ft 143kts
04-Sep-20 09:31 48.382733 -123.013079 356 1985ft 109kts
04-Sep-20 09:32 48.412451 -123.015457 356 1989ft 107kts
04-Sep-20 09:33 48.439385 -123.017618 356 1708ft 92kts
04-Sep-20 09:34 48.463568 -123.019564 356 1224ft 85kts
04-Sep-20 09:35 48.486725 -123.021432 357 750ft 79kts
04-Sep-20 09:36 48.509334 -123.023263 357 289ft 79kts
04-Sep-20 09:37 48.523691 -123.025069 336 107ft 11kts
04-Sep-20 09:38 48.524854 -123.025965 313 116ft 0kts
04-Sep-20 09:40 48.524854 -123.025965 313 116ft 0kts
04-Sep-20 09:41 48.524854 -123.025965 313 116ft 0kts
04-Sep-20 09:42 48.524854 -123.025965 313 116ft 0kts

Navigation Log

Ident Type
Flight plan parsing failed, navigation log unavailable